Résultats de la compétition "Régionale 5 - La Mare des Pressoirs" du 14-11-2010 organisée par le club 7716
     
  Télécharger le fichier CSV.  
     
     

 Circuit "parcours A"

Licence Nom Prénom Temps CN
précédent
Score sur
la course
Différence
8237RAIMBAULTJuste1:01:0971046667-437
12934THOMASJohann1:06:5963946086-308
11531BRAULTLionel1:08:1155265979+453
5638TARDYVictor1:09:1958175881+64
11475GODEFROYBruno1:09:3266365863-773
10757MARTELFranck1:10:1662545802-452
4374BONNEAUMaxime1:11:2063535715-638
9601BESTELThierry1:14:1558345490-344
19028SCHMIDT-MORGENROTHJacques1:14:3550905466+376
3141MOREYEtienne1:17:3453465256-90
6481RORASebastien1:18:0254015224-177
6014THURIOTKevin1:19:1151995148-51
3742JOURDATOlivier1:20:0949945086+92
22PLAGNESylvain1:21:3248635000+137
12073JOVERKevin1:22:0147794970+191
13445HEALYYann1:23:2854104884-526
20377CADARTYoann1:24:1742884837+549
7630LANNEZVALYann1:24:3004824N/A
15176QUINQUENELHerve1:28:2547624611-151
883GALPINNicolas1:28:5937754581+806
18327NAVILLEThierry1:29:4940294539+510
19344DAEMAdriaan1:30:2940754505+430
19558ROCHStephane1:30:3242764503+227
1433SERGEANTDominique1:32:5152964390-906
8795BARBEDavid1:33:4638234348+525
20779MEHEUTGuillaume1:34:4835194300+781
21472DALLEEric1:38:3735604134+574
8990GUESDONMaxime1:39:3142874096-191
2171DEVILLERSChristophe1:40:2244944062-432
23652LE ROUXEric1:41:10N/A4030N/A
16588BESCHFrederic1:42:3150903976-1114
22780AUGUSTYNOWICZBrice1:44:1203912N/A
12379MONTAGARDFrederic1:45:0036203882+262
8234MORELOlivier1:48:3140623757-305
12177BARBIERPatrick1:50:20N/A3695N/A
23908CUMPSTEYIan1:51:32N/A3655N/A
20466MORANDJean-philippe1:54:3233333559+226
13318BODARDStephan1:56:4403492N/A
20784WUThierry2:09:0931473156+9
22734SAUVESTREDidier2:09:4718393141+1302
22744ROBERTJulien2:24:1702825N/A
14549POUZETStephaneN/A24840-2484
20279BEILLCédricN/A38180-3818
18446JALABERTJulienN/AN/A0N/A

  Indice de confiance du circuit (moyenne des différences entre CN et score sur la course des 3 à 10 premiers) : 164




 Circuit "parcours B"

Licence Nom Prénom Temps CN
précédent
Score sur
la course
Différence
6117LESAULTPhilippe0:58:0758626503+641
4182RAUTURIERMaxime1:02:3954546032+578
10755L'HERITIERJean-Philippe1:03:1964135969-444
13391ROGERAlexandre1:03:2951375953+816
15016GUINOTRémi1:03:5553965913+517
12114PANNIERPascal1:05:5157125739+27
2120VANNIEREric1:06:1858785700-178
1983HALLAYFranck1:07:0805630N/A
3201RAUTURIERChristophe1:07:1056445627-17
7019CASTAINGOlivier1:13:1361025162-940
8548CLOUARDFrederic1:14:1742845088+804
17594GUELENNOCThibaud1:14:4343055058+753
7610HEROUARDThierry1:15:2954905007-483
10751RAOULTPascal1:15:5140094983+974
10451RAIMBAULTPhilippe1:16:3952904931-359
23027NIELFabrice1:17:27N/A4880N/A
879DEROSINGilles1:18:4652934798-495
2448SPAETHDaniel1:19:3951984745-453
16518OLIERICJ-Christophe1:19:4539714739+768
22287BERNARDLeo1:20:0836244716+1092
1993PERICHONBernard1:21:5160014617-1384
20416STEPHANYAntoine1:22:0439224605+683
2221BEAUVISAGEChristoph1:25:1047724438-334
4181RAUTURIERBenoit1:25:3657204415-1305
19901SILVAINFrédéric1:25:4037084412+704
16119SENTAGNEFrancois1:25:4349874409-578
8889GARNIERVincent1:26:3242424367+125
3353BONNEAUPaul1:29:1647084234-474
22965RIGOVincent1:29:38N/A4216N/A
14688CARUELFrancois1:32:5443494068-281
16184FAUQUANTJ-Marie1:34:2436854004+319
16508PELLINBertrand1:34:3043943999-395
13245POYARDJ-Claude1:35:2339463962+16
19139CAMBAKIDISStéphane1:36:0324513935+1484
14800DAMBRINEFabrice1:36:2237733922+149
23346VANLEENEBenoit1:37:04N/A3894N/A
23106DELEPINESylvain1:37:38N/A3871N/A
1977FISCHERFrederic1:37:5244803862-618
4357ROULLEAUXAlain1:39:0048103818-992
10627GABRIELPhilippe1:43:0533453666+321
6502WOLOCHYannis1:45:4037473577-170
2142NAELPascal1:49:5749663437-1529
5093DROUARDRemi1:49:5833703437+67
10491FARGANELThierry1:51:5733913376-15
17992LUCASJerome1:52:0430943372+278
20392JOUFFRAISStéphane1:52:4916483350+1702
16190FLOQUETPatrick1:55:0830803283+203
20384DUTERAGEChristian2:13:3326432830+187
20431WANNAVONGHZManyrath2:16:1020432776+733
11476DEBOCQMAINEAgnesN/A42660-4266
22313BIBAUTSébastienN/A36620-3662
22029PINSARDFrédéricN/A32550-3255
22362KUGLERGéraldN/AN/A0N/A
7437PIGACHEEricN/A46130-4613
15226MERIGUETFabienN/A30120-3012
22431CAZABAN-LARRABYPierreN/AN/A0N/A

  Indice de confiance du circuit (moyenne des différences entre CN et score sur la course des 3 à 10 premiers) : 139




 Circuit "parcours C"

Licence Nom Prénom Temps CN
précédent
Score sur
la course
Différence
2034BAROUXJacky0:58:1963795625-754
6961CLOUZEAUJacques1:00:1852815440+159
3134LALEVEEJ-Charles1:00:3154325420-12
18211BLOTGregory1:01:3645365325+789
10744MAINELaurent1:01:4353295315-14
2091VANNIERValerie1:03:2542735172+899
2035BAROUXSamuel1:03:4145075151+644
2032BAROUXCeline1:05:4238114993+1182
7702RORAJose1:06:1054674957-510
3194ESTIVALJ-Luc1:06:3951864921-265
23700ODLUNDErika1:09:26N/A4724N/A
1398HERMETAndre1:09:4043284708+380
501SERINETLaurent1:10:0042294686+457
16070RICHINMarion1:11:3141454587+442
7902PORTRONAlain1:11:4643144571+257
890GODEFROYRene1:12:0848674547-320
10809GUERINFranck1:13:4343864450+64
8567BARDESPhilippe1:13:5951224434-688
14302CAMPBELLNick1:14:3351554400-755
9869CORDEIRO MENDESMagalie1:15:3554674340-1127
19023GAUQUELINJerome1:16:1726864300+1614
19094LEMAIREYann-pierrick1:16:2644354292-143
3355CHARIAUJ-Marc1:18:0204204N/A
20187FALCOEstelle1:20:1026954092+1397
922PREVOSTPascale1:21:1756994035-1664
12192LOUATAime1:21:3140154024+9
13387DEBRABANDEREGilles1:22:2340683982-86
7573OUDINBernard1:22:3245803974-606
1367MOLINIERJ-Luc1:23:2840093930-79
14686HENNELPascal1:23:2825333930+1397
923PREVOSTPatrick1:24:3151753881-1294
14947JOUVEBernard1:25:0241543857-297
10811BERREHARAnne1:25:0540083855-153
11709ROMIEUCyril1:25:5439923819-173
13398DELAGEJ-Gilles1:26:0403811N/A
3847MATHELIERChristian1:27:0503767N/A
18059BRUNDU-LEMAIRESarah1:28:1036933720+27
1386LELOUPPhilippe1:29:2838553666-189
17113LEROUZICGwenael1:29:3234893664+175
5141MARTINGilbert1:30:2436343628-6
22293MARTINFulgencio1:38:5236823318-364
14005ABRIOLDaniel1:40:2730943265+171
13174BARDURYEmile1:42:3440613198-863
22385TOMASSIJean Marc1:43:2324513173+722
15232ROGERVincent1:45:5534123097-315
19642LECONTEGilbert1:49:2028323000+168
12053COUTURIERClaude1:50:3331562967-189
8761BRUNELMarie-Jo1:50:3733672965-402
2135COMBATBruno1:51:3527942940+146
20845POUVRASSEAULudovic1:51:5728172930+113
10830BESEGAILuc1:54:1328432872+29
19003PIERSONBlandine1:57:4734172785-632
912LOUVETEloise1:59:5634992735-764
2160ARLANDISJ-Christoph2:05:4627562608-148
18959FERNANDES ANTUNESRomeuN/A51760-5176
14691ROZAND-LELOUPEmmanuelN/A41050-4105
18502PELLETIERGuillaumeN/A39760-3976
22162BERNARDRaymondN/A21550-2155
23105RENAULTIsabelleN/AN/A0N/A
10303BEAUDENONCedricN/A42780-4278
16267FINAUD-GUYOTLionelN/A29410-2941
1955WIBARTHelierN/A35360-3536

  Indice de confiance du circuit (moyenne des différences entre CN et score sur la course des 3 à 10 premiers) : 154




 Circuit "parcours D"

Licence Nom Prénom Temps CN
précédent
Score sur
la course
Différence
11307BEAUVISAGELauriane0:52:1252905151-139
4879RAUTURIERQuentin0:52:4447015098+397
8922ROULLEAUXNoemie0:56:0847924790-2
897HAMONMatthieu0:57:2940934677+584
8551CLOUARDLucile0:58:5139324569+637
7711DENAIXLou0:59:2138904530+640
15015GUINOTVéronique1:00:1743954460+65
19661TREPTELPierre1:00:3541204438+318
13744PAULETGuillaume1:03:1941234246+123
933SOLMichel1:03:4143974222-175
2119VANNIERBernard1:05:0554754131-1344
4592ANTOINE-DELAUMESophie1:05:3844854096-389
14684MERIGUETThomas1:07:3229333981+1048
886GIRECamille1:08:0242813952-329
22398BONNETVincent1:09:4625863854+1268
2146HAMONPatrick1:10:4346943802-892
17777TREILLARDDominique1:11:5630033738+735
15253DELAVEAUPatrice1:12:4236053698+93
17853LOTTFrederic1:13:2130903665+575
14681ROGERAymeric1:15:2339803567-413
19345CHARDOTJulia1:18:5927693404+635
22292MARTINSylvie1:24:2932843182-102
1980GIESIMaurice1:24:3338623180-682
22363BONNETDominique1:24:3603178N/A
571LEPETITMichel1:25:4037763138-638
19215PASSELERGUEMarianne1:26:2533003111-189
8920TOUZAIN ROULLEAUXIsabelle1:27:1037833084-699
1373SZECHENYIEdmond1:27:1331923083-109
20418PIGEOTSylvie1:29:0130153020+5
1984HALLAYJ-Pierre1:30:1525362979+443
14946LEVREUXNathalie1:30:2732092972-237
18062TREPTELAnne1:34:4232132839-374
23680LEPREUX Sébastien1:35:30N/A2815N/A
3374ROUMYLaurence1:36:5113142776+1462
3356CHARIAUMichel1:36:5834062773-633
21021ROLLINRomain1:38:5122692720+451
17309BESTELFlorence1:39:2834922703-789
3200RAUTURIERNathalie1:41:0331712661-510
16265DHERVEGwenaelle1:41:4013042645+1341
23780PARISBertrand1:42:56N/A2612N/A
22539CHARDOTThierry1:44:2815492574+1025
3354BONNEAUCatherine1:44:3735762570-1006
3600LAZAROWICZRichard1:45:0332212559-662
20448DIDOUSusanna1:45:5624922538+46
22473ROUGEAUXClémence1:46:1102532N/A
23799MOREAUElisabeth1:47:07N/A2510N/A
3195CLETArlette1:49:0033402467-873
1379CRENNChristian1:51:4132102407-803
18140AUBERTFabrice1:51:4925412404-137
18060LE CAMMarion1:52:39N/A2387N/A
4659TURPINGilbert1:54:5202341N/A
23930GEORGELINHervé1:58:00N/A2278N/A
22405LEBIGREThibaut1:58:4002266N/A
11832RODIERMarie1:58:4402264N/A
22969MEZZAROBBOMyriam2:02:00N/A2204N/A
22384VILLAMEUli2:19:1415981931+333
19643LECONTESylvie2:19:5016621923+261
9517LORENZOVeronique2:54:4201539N/A
17839LUCASAmauryN/A25450-2545
7703RORAIsabelleN/A37580-3758
18480PAULETSergeN/A35140-3514
884GARDEURJulienN/A38200-3820
11554VERBRUGGHEAlainN/A30620-3062
23102VIRLOGEUXCésarN/AN/A0N/A

  Indice de confiance du circuit (moyenne des différences entre CN et score sur la course des 3 à 10 premiers) : 99




 Circuit "parcours E"

Licence Nom Prénom Temps CN
précédent
Score sur
la course
Différence
12560ESTIVALThierry0:41:4832764150+874
20664ERBLANDThibault0:44:0821933931+1738
11559ROULLEAUXJulie0:45:5839193774-145
22575DREANOBenjamin0:47:2813773655+2278
20502PEUREYLoann0:47:4023053639+1334
23705BERCOTClément0:52:33N/A3301N/A
1380DIEUDONNEMadeleine0:53:4340253229-796
23938LELARGEThomas0:54:29N/A3184N/A
6487MOLINIERCaroline0:55:0331303151+21
24083ADAM-CUVILLIERNoémie0:56:08N/A3090N/A
4372PETITGuyonne0:57:1244723033-1439
20869BOUQUEREAUMorgane0:58:3216582964+1306
23686MINIOTFrédérique0:58:36N/A2960N/A
13926GODEFROYSimon0:59:5930402892-148
10758BESTELSandra1:00:3626242863+239
23568MARTINPascale1:04:44N/A2680N/A
5982BRETDominique1:05:3425562646+90
19686GARINGilles1:06:0023452628+283
23687VANLEENE Mathilde1:06:38N/A2603N/A
23743PARISAntoine1:07:23N/A2574N/A
1381DIEUDONNERoland1:11:3436292424-1205
7704RORAElodie1:12:3002393N/A
935TESTOUDPhilippe1:14:0830232340-683
7574OUDINM-Reine1:15:5539202285-1635
22359LAMBERT Grégoire1:20:3302154N/A
23711DREANOJoël1:21:05N/A2139N/A
16687MERIGUETValerie1:21:4714302121+691
23770PEDRONONolwenn1:23:24N/A2080N/A
2124VANNIERVictorine1:24:2522522055-197
22314CHARDOTUlrike1:25:0714752038+563
14761DEBRABANDEREClaudine1:27:0823121991-321
11037NALONPascale1:31:5321121888-224
12377DENISMartine1:33:5529451847-1098
295PEETERSSimone1:35:3528311815-1016
3370GAWSEWITCHGerald1:50:1524901573-917
16307SCHAPPACHERWilliamN/A27270-2727
22315CHARDOTMarionN/A20240-2024
23997FOUCHERMarieN/AN/A0N/A
20383DUTERAGECatherineN/A13610-1361

  Indice de confiance du circuit (moyenne des différences entre CN et score sur la course des 3 à 10 premiers) : 449




 Circuit "parcours F"

Licence Nom Prénom Temps CN
précédent
Score sur
la course
Différence
22494ERBLANDThomas0:23:0315492491+942
22495ERBLANDPierre0:25:1214642278+814
20717GARINPaul0:28:4901992N/A
12561ESTIVALSolene0:29:5619461918-28
20660ELVERJudith0:31:3501818N/A
17045VANNIEREmie0:33:59N/A1690N/A
17522BLANCHONAlexandre0:34:0520571685-372
15248HEROUARDYuri0:37:3617271527-200
17308BESTELArnault0:37:4022361524-712
17521BLANCHONNicolas0:38:1011381504+366
20659FEIGNIERNathalie0:41:5601369N/A
21066BLANCHONLaurent0:42:4116671345-322
19099PANNIERAxel0:43:3612161317+101
19095LEMAIRECléo0:43:4201314N/A
18261SELLIERMathis0:45:24N/A1265N/A
16688PANNIERQuentin0:45:3222711261-1010
20662FEIGNIEREric0:45:359011260+359
23970MARCHINAlexandre0:51:01N/A1125N/A
21305COMBATAlexandre0:55:089301041+111
22432PEUREYTristan1:03:06N/A910N/A
22402DALIERMathilde1:15:37N/A759N/A
22403LECERFLaura1:15:45N/A758N/A
19375MERIGUETEmilieN/A7820-782

  Indice de confiance du circuit (moyenne des différences entre CN et score sur la course des 3 à 10 premiers) : 329






 Retour